sensor_id;sensor_type;location;lat;lon;timestamp;pressure;altitude;pressure_sealevel;temperature;humidity
8286;BME280;4181;43.416;24.598;2023-03-19T00:02:20;100912.63;;;6.55;100.00
8286;BME280;4181;43.416;24.598;2023-03-19T00:04:46;100894.50;;;6.55;100.00
8286;BME280;4181;43.416;24.598;2023-03-19T00:07:12;100887.19;;;6.62;100.00
8286;BME280;4181;43.416;24.598;2023-03-19T00:09:37;100893.06;;;6.72;100.00
8286;BME280;4181;43.416;24.598;2023-03-19T00:12:03;100901.34;;;6.58;100.00
8286;BME280;4181;43.416;24.598;2023-03-19T00:14:29;100884.28;;;6.51;100.00
8286;BME280;4181;43.416;24.598;2023-03-19T00:16:54;100894.91;;;6.65;100.00
8286;BME280;4181;43.416;24.598;2023-03-19T00:19:20;100885.53;;;6.68;100.00
8286;BME280;4181;43.416;24.598;2023-03-19T00:21:46;100883.00;;;6.73;100.00
8286;BME280;4181;43.416;24.598;2023-03-19T00:24:11;100894.50;;;6.81;100.00
8286;BME280;4181;43.416;24.598;2023-03-19T00:26:37;100853.19;;;6.60;100.00
8286;BME280;4181;43.416;24.598;2023-03-19T00:29:03;100872.38;;;6.78;100.00
8286;BME280;4181;43.416;24.598;2023-03-19T00:31:29;100879.28;;;6.74;100.00
8286;BME280;4181;43.416;24.598;2023-03-19T00:33:58;100874.28;;;6.77;100.00
8286;BME280;4181;43.416;24.598;2023-03-19T00:36:25;100874.47;;;6.56;100.00
8286;BME280;4181;43.416;24.598;2023-03-19T00:38:51;100865.50;;;6.56;100.00
8286;BME280;4181;43.416;24.598;2023-03-19T00:41:17;100848.41;;;6.62;100.00
8286;BME280;4181;43.416;24.598;2023-03-19T00:43:45;100864.66;;;6.68;100.00
8286;BME280;4181;43.416;24.598;2023-03-19T00:46:11;100860.31;;;6.67;100.00
8286;BME280;4181;43.416;24.598;2023-03-19T00:48:36;100829.63;;;6.60;100.00
8286;BME280;4181;43.416;24.598;2023-03-19T00:51:03;100863.00;;;6.87;100.00
8286;BME280;4181;43.416;24.598;2023-03-19T00:53:29;100836.53;;;6.76;100.00
8286;BME280;4181;43.416;24.598;2023-03-19T00:55:55;100829.19;;;6.83;100.00
8286;BME280;4181;43.416;24.598;2023-03-19T00:58:20;100843.38;;;6.78;100.00
8286;BME280;4181;43.416;24.598;2023-03-19T01:00:46;100840.88;;;6.77;100.00
8286;BME280;4181;43.416;24.598;2023-03-19T01:03:11;100854.66;;;6.82;100.00
8286;BME280;4181;43.416;24.598;2023-03-19T01:05:37;100824.63;;;6.64;100.00
8286;BME280;4181;43.416;24.598;2023-03-19T01:08:02;100833.19;;;6.61;100.00
8286;BME280;4181;43.416;24.598;2023-03-19T01:10:28;100826.06;;;6.66;100.00
8286;BME280;4181;43.416;24.598;2023-03-19T01:12:53;100806.06;;;6.61;100.00
8286;BME280;4181;43.416;24.598;2023-03-19T01:15:18;100815.03;;;6.74;100.00
8286;BME280;4181;43.416;24.598;2023-03-19T01:17:44;100810.03;;;6.84;100.00
8286;BME280;4181;43.416;24.598;2023-03-19T01:20:10;100820.63;;;7.05;100.00
8286;BME280;4181;43.416;24.598;2023-03-19T01:22:43;100831.50;;;6.73;100.00
8286;BME280;4181;43.416;24.598;2023-03-19T01:25:11;100827.53;;;6.82;100.00
8286;BME280;4181;43.416;24.598;2023-03-19T01:27:37;100821.69;;;6.85;100.00
8286;BME280;4181;43.416;24.598;2023-03-19T01:30:04;100822.94;;;6.89;100.00
8286;BME280;4181;43.416;24.598;2023-03-19T01:32:30;100828.38;;;6.82;100.00
8286;BME280;4181;43.416;24.598;2023-03-19T01:34:55;100841.72;;;6.44;100.00
8286;BME280;4181;43.416;24.598;2023-03-19T01:37:21;100825.25;;;6.46;100.00
8286;BME280;4181;43.416;24.598;2023-03-19T01:39:47;100801.69;;;6.40;100.00
8286;BME280;4181;43.416;24.598;2023-03-19T01:42:13;100832.34;;;6.54;100.00
8286;BME280;4181;43.416;24.598;2023-03-19T01:44:39;100834.41;;;6.25;100.00
8286;BME280;4181;43.416;24.598;2023-03-19T01:47:31;100832.28;;;6.14;100.00
8286;BME280;4181;43.416;24.598;2023-03-19T01:49:57;100827.53;;;6.29;100.00
8286;BME280;4181;43.416;24.598;2023-03-19T01:52:27;100816.47;;;6.31;100.00
8286;BME280;4181;43.416;24.598;2023-03-19T01:54:54;100832.97;;;6.43;100.00
8286;BME280;4181;43.416;24.598;2023-03-19T01:57:22;100838.19;;;6.37;100.00
8286;BME280;4181;43.416;24.598;2023-03-19T01:59:51;100817.53;;;6.23;100.00
8286;BME280;4181;43.416;24.598;2023-03-19T02:04:52;100813.97;;;6.29;100.00
8286;BME280;4181;43.416;24.598;2023-03-19T02:07:20;100826.28;;;6.32;100.00
8286;BME280;4181;43.416;24.598;2023-03-19T02:09:46;100825.03;;;6.34;100.00
8286;BME280;4181;43.416;24.598;2023-03-19T02:12:12;100816.72;;;6.43;100.00
8286;BME280;4181;43.416;24.598;2023-03-19T02:14:38;100835.25;;;6.59;100.00
8286;BME280;4181;43.416;24.598;2023-03-19T02:17:04;100843.19;;;6.73;100.00
8286;BME280;4181;43.416;24.598;2023-03-19T02:22:23;100825.88;;;6.81;100.00
8286;BME280;4181;43.416;24.598;2023-03-19T02:24:55;100836.31;;;6.64;100.00
8286;BME280;4181;43.416;24.598;2023-03-19T02:27:23;100832.97;;;6.43;100.00
8286;BME280;4181;43.416;24.598;2023-03-19T02:29:48;100836.09;;;6.53;100.00
8286;BME280;4181;43.416;24.598;2023-03-19T02:32:14;100821.28;;;6.49;100.00
8286;BME280;4181;43.416;24.598;2023-03-19T02:34:41;100833.59;;;6.64;100.00
8286;BME280;4181;43.416;24.598;2023-03-19T02:42:27;100826.88;;;6.93;100.00
8286;BME280;4181;43.416;24.598;2023-03-19T02:44:53;100826.50;;;6.96;100.00
8286;BME280;4181;43.416;24.598;2023-03-19T02:47:19;100828.78;;;6.86;100.00
8286;BME280;4181;43.416;24.598;2023-03-19T02:49:44;100825.47;;;6.64;100.00
8286;BME280;4181;43.416;24.598;2023-03-19T02:52:10;100838.41;;;6.56;100.00
8286;BME280;4181;43.416;24.598;2023-03-19T02:54:35;100828.59;;;6.41;100.00
8286;BME280;4181;43.416;24.598;2023-03-19T02:57:01;100833.38;;;6.33;100.00
8286;BME280;4181;43.416;24.598;2023-03-19T02:59:27;100824.97;;;5.95;100.00
8286;BME280;4181;43.416;24.598;2023-03-19T03:05:13;100798.19;;;5.66;100.00
8286;BME280;4181;43.416;24.598;2023-03-19T03:07:39;100816.63;;;5.90;100.00
8286;BME280;4181;43.416;24.598;2023-03-19T03:10:06;100805.09;;;5.75;100.00
8286;BME280;4181;43.416;24.598;2023-03-19T03:12:32;100847.13;;;5.71;100.00
8286;BME280;4181;43.416;24.598;2023-03-19T03:14:58;100814.34;;;5.40;100.00
8286;BME280;4181;43.416;24.598;2023-03-19T03:17:23;100819.63;;;5.14;100.00
8286;BME280;4181;43.416;24.598;2023-03-19T03:19:49;100824.91;;;5.35;100.00
8286;BME280;4181;43.416;24.598;2023-03-19T03:22:15;100809.44;;;5.22;100.00
8286;BME280;4181;43.416;24.598;2023-03-19T03:24:40;100812.38;;;5.28;100.00
8286;BME280;4181;43.416;24.598;2023-03-19T03:27:06;100799.63;;;5.15;100.00
8286;BME280;4181;43.416;24.598;2023-03-19T03:29:32;100808.44;;;5.24;100.00
8286;BME280;4181;43.416;24.598;2023-03-19T03:31:57;100836.25;;;5.17;100.00
8286;BME280;4181;43.416;24.598;2023-03-19T03:34:23;100821.25;;;5.08;100.00
8286;BME280;4181;43.416;24.598;2023-03-19T03:36:48;100831.75;;;5.31;100.00
8286;BME280;4181;43.416;24.598;2023-03-19T03:39:14;100793.75;;;5.05;100.00
8286;BME280;4181;43.416;24.598;2023-03-19T03:41:39;100835.38;;;5.04;100.00
8286;BME280;4181;43.416;24.598;2023-03-19T03:44:05;100835.41;;;5.10;100.00
8286;BME280;4181;43.416;24.598;2023-03-19T03:46:31;100823.09;;;5.08;100.00
8286;BME280;4181;43.416;24.598;2023-03-19T03:48:56;100807.91;;;5.07;100.00
8286;BME280;4181;43.416;24.598;2023-03-19T03:51:22;100836.53;;;5.29;100.00
8286;BME280;4181;43.416;24.598;2023-03-19T03:53:47;100849.25;;;5.29;100.00
8286;BME280;4181;43.416;24.598;2023-03-19T03:56:13;100849.97;;;5.16;100.00
8286;BME280;4181;43.416;24.598;2023-03-19T03:58:38;100845.25;;;5.25;100.00
8286;BME280;4181;43.416;24.598;2023-03-19T04:01:04;100842.94;;;5.22;100.00
8286;BME280;4181;43.416;24.598;2023-03-19T04:03:31;100841.25;;;5.14;100.00
8286;BME280;4181;43.416;24.598;2023-03-19T04:05:56;100830.78;;;5.04;100.00
8286;BME280;4181;43.416;24.598;2023-03-19T04:08:22;100850.47;;;4.92;100.00
8286;BME280;4181;43.416;24.598;2023-03-19T04:10:48;100848.41;;;4.94;100.00
8286;BME280;4181;43.416;24.598;2023-03-19T04:13:14;100841.47;;;4.85;100.00
8286;BME280;4181;43.416;24.598;2023-03-19T04:15:43;100832.31;;;4.58;100.00
8286;BME280;4181;43.416;24.598;2023-03-19T04:18:09;100823.47;;;4.71;100.00
8286;BME280;4181;43.416;24.598;2023-03-19T04:20:34;100841.88;;;4.82;100.00
8286;BME280;4181;43.416;24.598;2023-03-19T04:23:00;100837.59;;;4.94;100.00
8286;BME280;4181;43.416;24.598;2023-03-19T04:25:26;100836.53;;;4.95;100.00
8286;BME280;4181;43.416;24.598;2023-03-19T04:27:51;100837.84;;;4.99;100.00
8286;BME280;4181;43.416;24.598;2023-03-19T04:30:17;100843.66;;;5.02;100.00
8286;BME280;4181;43.416;24.598;2023-03-19T04:32:43;100856.88;;;4.91;100.00
8286;BME280;4181;43.416;24.598;2023-03-19T04:35:08;100860.53;;;4.77;100.00
8286;BME280;4181;43.416;24.598;2023-03-19T04:37:35;100844.28;;;4.49;100.00
8286;BME280;4181;43.416;24.598;2023-03-19T04:40:01;100843.16;;;4.16;100.00
8286;BME280;4181;43.416;24.598;2023-03-19T04:42:26;100855.63;;;4.38;100.00
8286;BME280;4181;43.416;24.598;2023-03-19T04:44:52;100844.59;;;4.61;100.00
8286;BME280;4181;43.416;24.598;2023-03-19T04:47:18;100847.34;;;4.67;100.00
8286;BME280;4181;43.416;24.598;2023-03-19T04:49:44;100834.69;;;4.68;100.00
8286;BME280;4181;43.416;24.598;2023-03-19T04:52:09;100842.44;;;5.05;100.00
8286;BME280;4181;43.416;24.598;2023-03-19T04:54:35;100826.69;;;5.15;100.00
8286;BME280;4181;43.416;24.598;2023-03-19T04:57:00;100848.94;;;5.51;100.00
8286;BME280;4181;43.416;24.598;2023-03-19T04:59:26;100853.59;;;5.70;100.00
8286;BME280;4181;43.416;24.598;2023-03-19T05:01:51;100851.03;;;6.03;100.00
8286;BME280;4181;43.416;24.598;2023-03-19T05:04:17;100839.41;;;6.15;100.00
8286;BME280;4181;43.416;24.598;2023-03-19T05:06:43;100849.41;;;6.41;100.00
8286;BME280;4181;43.416;24.598;2023-03-19T05:09:09;100829.00;;;6.32;100.00
8286;BME280;4181;43.416;24.598;2023-03-19T05:11:34;100847.56;;;6.55;100.00
8286;BME280;4181;43.416;24.598;2023-03-19T05:14:00;100867.38;;;6.88;100.00
8286;BME280;4181;43.416;24.598;2023-03-19T05:16:26;100812.28;;;6.94;100.00
8286;BME280;4181;43.416;24.598;2023-03-19T05:18:51;100842.66;;;7.35;100.00
8286;BME280;4181;43.416;24.598;2023-03-19T05:21:17;100854.06;;;7.63;100.00
8286;BME280;4181;43.416;24.598;2023-03-19T05:23:42;100836.06;;;7.75;100.00
8286;BME280;4181;43.416;24.598;2023-03-19T05:26:08;100846.69;;;8.21;100.00
8286;BME280;4181;43.416;24.598;2023-03-19T05:28:34;100828.84;;;8.31;100.00
8286;BME280;4181;43.416;24.598;2023-03-19T05:30:59;100842.50;;;8.18;100.00
8286;BME280;4181;43.416;24.598;2023-03-19T05:33:25;100830.94;;;8.36;100.00
8286;BME280;4181;43.416;24.598;2023-03-19T05:35:51;100845.22;;;8.56;100.00
8286;BME280;4181;43.416;24.598;2023-03-19T05:38:17;100824.94;;;8.76;100.00
8286;BME280;4181;43.416;24.598;2023-03-19T05:40:43;100822.00;;;9.03;100.00
8286;BME280;4181;43.416;24.598;2023-03-19T05:43:09;100828.06;;;9.23;100.00
8286;BME280;4181;43.416;24.598;2023-03-19T05:45:36;100824.28;;;9.24;100.00
8286;BME280;4181;43.416;24.598;2023-03-19T05:48:02;100820.13;;;9.39;100.00
8286;BME280;4181;43.416;24.598;2023-03-19T05:50:28;100807.25;;;9.64;100.00
8286;BME280;4181;43.416;24.598;2023-03-19T05:52:56;100795.75;;;9.92;100.00
8286;BME280;4181;43.416;24.598;2023-03-19T05:55:21;100769.84;;;10.01;100.00
8286;BME280;4181;43.416;24.598;2023-03-19T05:57:47;100772.91;;;10.23;100.00
8286;BME280;4181;43.416;24.598;2023-03-19T06:00:13;100791.09;;;10.63;100.00
8286;BME280;4181;43.416;24.598;2023-03-19T06:02:41;100774.75;;;10.98;100.00
8286;BME280;4181;43.416;24.598;2023-03-19T06:05:07;100763.59;;;11.11;100.00
8286;BME280;4181;43.416;24.598;2023-03-19T06:07:33;100764.50;;;11.05;100.00
8286;BME280;4181;43.416;24.598;2023-03-19T06:09:58;100775.63;;;11.49;100.00
8286;BME280;4181;43.416;24.598;2023-03-19T06:12:24;100755.63;;;11.61;100.00
8286;BME280;4181;43.416;24.598;2023-03-19T06:14:50;100766.00;;;11.87;100.00
8286;BME280;4181;43.416;24.598;2023-03-19T06:17:16;100750.22;;;12.05;100.00
8286;BME280;4181;43.416;24.598;2023-03-19T06:19:41;100757.97;;;12.25;100.00
8286;BME280;4181;43.416;24.598;2023-03-19T06:22:07;100745.78;;;12.49;100.00
8286;BME280;4181;43.416;24.598;2023-03-19T06:24:33;100751.50;;;12.64;100.00
8286;BME280;4181;43.416;24.598;2023-03-19T06:26:58;100751.81;;;12.84;100.00
8286;BME280;4181;43.416;24.598;2023-03-19T06:29:24;100750.88;;;12.95;100.00
8286;BME280;4181;43.416;24.598;2023-03-19T06:31:50;100743.53;;;12.62;100.00
8286;BME280;4181;43.416;24.598;2023-03-19T06:34:16;100756.59;;;12.94;100.00
8286;BME280;4181;43.416;24.598;2023-03-19T06:36:42;100738.16;;;13.22;100.00
8286;BME280;4181;43.416;24.598;2023-03-19T06:39:08;100731.72;;;13.55;100.00
8286;BME280;4181;43.416;24.598;2023-03-19T06:41:34;100728.91;;;13.71;100.00
8286;BME280;4181;43.416;24.598;2023-03-19T06:44:01;100722.63;;;13.76;100.00
8286;BME280;4181;43.416;24.598;2023-03-19T06:46:27;100736.25;;;13.92;100.00
8286;BME280;4181;43.416;24.598;2023-03-19T06:48:52;100723.47;;;14.30;100.00
8286;BME280;4181;43.416;24.598;2023-03-19T06:51:18;100720.78;;;14.35;100.00
8286;BME280;4181;43.416;24.598;2023-03-19T06:53:43;100715.44;;;14.55;100.00
8286;BME280;4181;43.416;24.598;2023-03-19T06:56:09;100710.56;;;14.62;100.00
8286;BME280;4181;43.416;24.598;2023-03-19T06:58:35;100719.47;;;14.84;100.00
8286;BME280;4181;43.416;24.598;2023-03-19T07:01:01;100692.25;;;14.77;100.00
8286;BME280;4181;43.416;24.598;2023-03-19T07:03:26;100690.88;;;14.75;100.00
8286;BME280;4181;43.416;24.598;2023-03-19T07:05:52;100690.84;;;14.70;100.00
8286;BME280;4181;43.416;24.598;2023-03-19T07:08:19;100714.09;;;15.04;100.00
8286;BME280;4181;43.416;24.598;2023-03-19T07:10:44;100699.69;;;15.29;100.00
8286;BME280;4181;43.416;24.598;2023-03-19T07:13:10;100707.94;;;15.29;100.00
8286;BME280;4181;43.416;24.598;2023-03-19T07:15:35;100695.34;;;15.43;100.00
8286;BME280;4181;43.416;24.598;2023-03-19T07:18:01;100693.00;;;15.81;100.00
8286;BME280;4181;43.416;24.598;2023-03-19T07:20:27;100694.97;;;16.11;100.00
8286;BME280;4181;43.416;24.598;2023-03-19T07:22:53;100692.78;;;16.18;100.00
8286;BME280;4181;43.416;24.598;2023-03-19T07:25:19;100683.16;;;16.20;100.00
8286;BME280;4181;43.416;24.598;2023-03-19T07:27:44;100703.53;;;15.33;100.00
8286;BME280;4181;43.416;24.598;2023-03-19T07:30:11;100720.75;;;15.08;100.00
8286;BME280;4181;43.416;24.598;2023-03-19T07:32:37;100709.75;;;15.08;100.00
8286;BME280;4181;43.416;24.598;2023-03-19T07:35:06;100708.19;;;15.27;100.00
8286;BME280;4181;43.416;24.598;2023-03-19T07:37:32;100692.06;;;15.51;100.00
8286;BME280;4181;43.416;24.598;2023-03-19T07:39:57;100687.69;;;15.50;100.00
8286;BME280;4181;43.416;24.598;2023-03-19T07:42:23;100711.22;;;15.36;100.00
8286;BME280;4181;43.416;24.598;2023-03-19T07:44:49;100712.75;;;15.06;100.00
8286;BME280;4181;43.416;24.598;2023-03-19T07:47:14;100697.31;;;15.57;100.00
8286;BME280;4181;43.416;24.598;2023-03-19T07:49:40;100689.19;;;16.12;100.00
8286;BME280;4181;43.416;24.598;2023-03-19T07:52:06;100686.16;;;16.44;100.00
8286;BME280;4181;43.416;24.598;2023-03-19T07:54:32;100687.00;;;16.24;100.00
8286;BME280;4181;43.416;24.598;2023-03-19T07:56:57;100705.16;;;15.95;100.00
8286;BME280;4181;43.416;24.598;2023-03-19T07:59:23;100703.19;;;15.91;100.00
8286;BME280;4181;43.416;24.598;2023-03-19T08:01:48;100687.97;;;15.53;100.00
8286;BME280;4181;43.416;24.598;2023-03-19T08:04:14;100678.72;;;15.99;100.00
8286;BME280;4181;43.416;24.598;2023-03-19T08:06:40;100692.50;;;16.60;100.00
8286;BME280;4181;43.416;24.598;2023-03-19T08:09:06;100702.44;;;16.35;100.00
8286;BME280;4181;43.416;24.598;2023-03-19T08:11:32;100677.63;;;15.90;100.00
8286;BME280;4181;43.416;24.598;2023-03-19T08:13:57;100696.63;;;16.17;100.00
8286;BME280;4181;43.416;24.598;2023-03-19T08:16:23;100693.56;;;15.78;100.00
8286;BME280;4181;43.416;24.598;2023-03-19T08:18:49;100705.56;;;15.42;100.00
8286;BME280;4181;43.416;24.598;2023-03-19T08:21:14;100709.22;;;15.73;100.00
8286;BME280;4181;43.416;24.598;2023-03-19T08:23:41;100728.66;;;15.46;100.00
8286;BME280;4181;43.416;24.598;2023-03-19T08:26:07;100708.69;;;15.19;100.00
8286;BME280;4181;43.416;24.598;2023-03-19T08:28:32;100705.03;;;15.55;100.00
8286;BME280;4181;43.416;24.598;2023-03-19T08:31:08;100712.22;;;15.71;100.00
8286;BME280;4181;43.416;24.598;2023-03-19T08:33:34;100701.31;;;16.16;100.00
8286;BME280;4181;43.416;24.598;2023-03-19T08:36:11;100705.16;;;16.00;100.00
8286;BME280;4181;43.416;24.598;2023-03-19T08:38:38;100690.03;;;16.43;100.00
8286;BME280;4181;43.416;24.598;2023-03-19T08:41:04;100695.25;;;16.44;100.00
8286;BME280;4181;43.416;24.598;2023-03-19T08:43:31;100708.41;;;15.87;100.00
8286;BME280;4181;43.416;24.598;2023-03-19T08:45:58;100715.56;;;15.83;100.00
8286;BME280;4181;43.416;24.598;2023-03-19T08:48:23;100682.59;;;16.08;100.00
8286;BME280;4181;43.416;24.598;2023-03-19T08:51:00;100684.78;;;16.36;100.00
8286;BME280;4181;43.416;24.598;2023-03-19T08:53:27;100698.28;;;16.23;100.00
8286;BME280;4181;43.416;24.598;2023-03-19T08:55:54;100696.31;;;15.83;100.00
8286;BME280;4181;43.416;24.598;2023-03-19T08:58:21;100696.81;;;15.60;100.00
8286;BME280;4181;43.416;24.598;2023-03-19T09:00:47;100689.31;;;15.46;100.00
8286;BME280;4181;43.416;24.598;2023-03-19T09:03:13;100700.59;;;15.44;100.00
8286;BME280;4181;43.416;24.598;2023-03-19T09:05:39;100678.97;;;15.93;100.00
8286;BME280;4181;43.416;24.598;2023-03-19T09:08:05;100682.88;;;16.17;100.00
8286;BME280;4181;43.416;24.598;2023-03-19T09:10:31;100662.75;;;16.11;100.00
8286;BME280;4181;43.416;24.598;2023-03-19T09:12:56;100685.88;;;15.95;100.00
8286;BME280;4181;43.416;24.598;2023-03-19T09:15:22;100672.88;;;15.66;100.00
8286;BME280;4181;43.416;24.598;2023-03-19T09:17:48;100652.84;;;16.00;100.00
8286;BME280;4181;43.416;24.598;2023-03-19T09:20:13;100643.47;;;15.81;100.00
8286;BME280;4181;43.416;24.598;2023-03-19T09:22:39;100670.63;;;15.48;100.00
8286;BME280;4181;43.416;24.598;2023-03-19T09:25:05;100658.00;;;15.57;100.00
8286;BME280;4181;43.416;24.598;2023-03-19T09:27:31;100644.31;;;16.32;100.00
8286;BME280;4181;43.416;24.598;2023-03-19T09:29:56;100634.69;;;16.50;100.00
8286;BME280;4181;43.416;24.598;2023-03-19T09:32:22;100642.94;;;15.94;100.00
8286;BME280;4181;43.416;24.598;2023-03-19T09:34:48;100652.00;;;15.90;100.00
8286;BME280;4181;43.416;24.598;2023-03-19T09:37:13;100617.06;;;16.25;100.00
8286;BME280;4181;43.416;24.598;2023-03-19T09:39:39;100643.75;;;15.85;100.00
8286;BME280;4181;43.416;24.598;2023-03-19T09:45:26;100626.13;;;16.51;100.00
8286;BME280;4181;43.416;24.598;2023-03-19T09:47:57;100624.16;;;16.77;100.00
8286;BME280;4181;43.416;24.598;2023-03-19T09:50:25;100631.72;;;17.15;100.00
8286;BME280;4181;43.416;24.598;2023-03-19T09:53:05;100609.34;;;17.75;100.00
8286;BME280;4181;43.416;24.598;2023-03-19T09:55:46;100619.69;;;17.54;100.00
8286;BME280;4181;43.416;24.598;2023-03-19T09:58:16;100617.16;;;17.04;100.00
8286;BME280;4181;43.416;24.598;2023-03-19T10:00:46;100625.06;;;17.21;100.00
8286;BME280;4181;43.416;24.598;2023-03-19T10:11:24;100593.72;;;17.99;100.00
8286;BME280;4181;43.416;24.598;2023-03-19T10:16:43;100597.16;;;17.81;100.00
8286;BME280;4181;43.416;24.598;2023-03-19T10:19:14;100605.25;;;17.19;100.00
8286;BME280;4181;43.416;24.598;2023-03-19T10:21:53;100609.22;;;16.88;100.00
8286;BME280;4181;43.416;24.598;2023-03-19T10:24:36;100594.06;;;16.90;100.00
8286;BME280;4181;43.416;24.598;2023-03-19T10:27:10;100589.31;;;17.59;100.00
8286;BME280;4181;43.416;24.598;2023-03-19T10:29:37;100589.13;;;17.85;100.00
8286;BME280;4181;43.416;24.598;2023-03-19T10:32:16;100568.03;;;18.27;100.00
8286;BME280;4181;43.416;24.598;2023-03-19T10:34:45;100552.28;;;18.80;100.00
8286;BME280;4181;43.416;24.598;2023-03-19T10:37:21;100550.81;;;18.40;100.00
8286;BME280;4181;43.416;24.598;2023-03-19T10:39:49;100567.28;;;17.88;100.00
8286;BME280;4181;43.416;24.598;2023-03-19T10:47:39;100523.06;;;18.74;100.00
8286;BME280;4181;43.416;24.598;2023-03-19T10:50:05;100522.50;;;18.96;100.00
8286;BME280;4181;43.416;24.598;2023-03-19T10:52:33;100537.66;;;17.99;100.00
8286;BME280;4181;43.416;24.598;2023-03-19T10:57:41;100555.84;;;17.66;100.00
8286;BME280;4181;43.416;24.598;2023-03-19T11:00:30;100550.78;;;17.39;100.00
8286;BME280;4181;43.416;24.598;2023-03-19T11:02:57;100510.19;;;17.50;100.00
8286;BME280;4181;43.416;24.598;2023-03-19T11:05:27;100523.22;;;18.07;100.00
8286;BME280;4181;43.416;24.598;2023-03-19T11:08:17;100509.84;;;18.19;100.00
8286;BME280;4181;43.416;24.598;2023-03-19T11:10:47;100491.41;;;18.61;100.00
8286;BME280;4181;43.416;24.598;2023-03-19T11:13:25;100483.03;;;19.09;100.00
8286;BME280;4181;43.416;24.598;2023-03-19T11:15:52;100488.34;;;19.24;100.00
8286;BME280;4181;43.416;24.598;2023-03-19T11:18:21;100473.59;;;19.47;100.00
8286;BME280;4181;43.416;24.598;2023-03-19T11:20:56;100475.56;;;19.28;100.00
8286;BME280;4181;43.416;24.598;2023-03-19T11:23:26;100497.78;;;18.10;100.00
8286;BME280;4181;43.416;24.598;2023-03-19T11:25:53;100509.22;;;17.98;100.00
8286;BME280;4181;43.416;24.598;2023-03-19T11:28:23;100501.47;;;18.00;100.00
8286;BME280;4181;43.416;24.598;2023-03-19T11:30:58;100505.44;;;17.89;100.00
8286;BME280;4181;43.416;24.598;2023-03-19T11:33:50;100504.44;;;18.09;100.00
8286;BME280;4181;43.416;24.598;2023-03-19T11:36:24;100477.88;;;18.60;100.00
8286;BME280;4181;43.416;24.598;2023-03-19T11:39:05;100468.75;;;19.02;100.00
8286;BME280;4181;43.416;24.598;2023-03-19T11:50:32;100447.38;;;18.88;100.00
8286;BME280;4181;43.416;24.598;2023-03-19T12:06:44;100423.09;;;18.85;100.00
8286;BME280;4181;43.416;24.598;2023-03-19T12:26:03;100403.34;;;19.11;100.00
8286;BME280;4181;43.416;24.598;2023-03-19T12:29:12;100399.81;;;19.24;100.00
8286;BME280;4181;43.416;24.598;2023-03-19T12:34:43;100395.97;;;18.87;100.00
8286;BME280;4181;43.416;24.598;2023-03-19T12:42:41;100413.84;;;18.29;100.00
8286;BME280;4181;43.416;24.598;2023-03-19T12:47:53;100387.81;;;18.77;100.00
8286;BME280;4181;43.416;24.598;2023-03-19T12:50:23;100391.47;;;18.91;100.00
8286;BME280;4181;43.416;24.598;2023-03-19T12:52:50;100391.91;;;18.61;100.00
8286;BME280;4181;43.416;24.598;2023-03-19T12:55:26;100390.88;;;18.57;100.00
8286;BME280;4181;43.416;24.598;2023-03-19T12:58:19;100382.44;;;18.67;100.00
8286;BME280;4181;43.416;24.598;2023-03-19T13:01:08;100375.63;;;18.78;100.00
8286;BME280;4181;43.416;24.598;2023-03-19T13:04:07;100364.69;;;19.06;100.00
8286;BME280;4181;43.416;24.598;2023-03-19T13:06:36;100357.94;;;19.30;100.00
8286;BME280;4181;43.416;24.598;2023-03-19T13:09:14;100329.97;;;19.32;100.00
8286;BME280;4181;43.416;24.598;2023-03-19T13:17:39;100363.31;;;18.52;100.00
8286;BME280;4181;43.416;24.598;2023-03-19T13:20:25;100366.09;;;18.52;100.00
8286;BME280;4181;43.416;24.598;2023-03-19T13:22:58;100368.16;;;18.60;100.00
8286;BME280;4181;43.416;24.598;2023-03-19T13:25:36;100358.53;;;18.76;100.00
8286;BME280;4181;43.416;24.598;2023-03-19T13:28:09;100345.22;;;18.97;100.00
8286;BME280;4181;43.416;24.598;2023-03-19T13:30:35;100359.19;;;18.87;100.00
8286;BME280;4181;43.416;24.598;2023-03-19T13:33:12;100349.28;;;18.67;100.00
8286;BME280;4181;43.416;24.598;2023-03-19T13:35:48;100344.53;;;18.86;100.00
8286;BME280;4181;43.416;24.598;2023-03-19T13:38:26;100340.44;;;19.16;100.00
8286;BME280;4181;43.416;24.598;2023-03-19T13:40:54;100301.31;;;19.09;100.00
8286;BME280;4181;43.416;24.598;2023-03-19T13:53:54;100321.41;;;18.82;100.00
8286;BME280;4181;43.416;24.598;2023-03-19T13:56:28;100329.38;;;19.03;100.00
8286;BME280;4181;43.416;24.598;2023-03-19T14:01:44;100339.09;;;18.81;100.00
8286;BME280;4181;43.416;24.598;2023-03-19T14:04:30;100335.22;;;18.64;100.00
8286;BME280;4181;43.416;24.598;2023-03-19T14:07:22;100322.41;;;18.86;100.00
8286;BME280;4181;43.416;24.598;2023-03-19T14:12:41;100318.13;;;19.13;100.00
8286;BME280;4181;43.416;24.598;2023-03-19T14:18:00;100318.47;;;18.37;100.00
8286;BME280;4181;43.416;24.598;2023-03-19T14:20:58;100329.50;;;18.18;100.00
8286;BME280;4181;43.416;24.598;2023-03-19T14:23:26;100326.81;;;17.90;100.00
8286;BME280;4181;43.416;24.598;2023-03-19T14:26:24;100329.97;;;18.02;100.00
8286;BME280;4181;43.416;24.598;2023-03-19T14:29:05;100330.50;;;18.04;100.00
8286;BME280;4181;43.416;24.598;2023-03-19T14:31:49;100325.47;;;18.11;100.00
8286;BME280;4181;43.416;24.598;2023-03-19T14:34:38;100332.28;;;17.95;100.00
8286;BME280;4181;43.416;24.598;2023-03-19T14:39:33;100319.53;;;17.99;100.00
8286;BME280;4181;43.416;24.598;2023-03-19T14:42:13;100283.06;;;17.78;100.00
8286;BME280;4181;43.416;24.598;2023-03-19T14:45:16;100301.28;;;17.79;100.00
8286;BME280;4181;43.416;24.598;2023-03-19T14:53:40;100305.75;;;17.75;100.00
8286;BME280;4181;43.416;24.598;2023-03-19T14:56:34;100301.47;;;17.64;100.00
8286;BME280;4181;43.416;24.598;2023-03-19T14:59:00;100309.50;;;17.60;100.00
8286;BME280;4181;43.416;24.598;2023-03-19T15:01:31;100296.28;;;17.57;100.00
8286;BME280;4181;43.416;24.598;2023-03-19T15:04:05;100324.00;;;17.42;100.00